createdAt,value
2022-08-31T00:00:28.514Z,17.77
2022-08-31T00:03:17.516Z,17.76
2022-08-31T00:05:49.113Z,17.74
2022-08-31T00:08:20.403Z,17.73
2022-08-31T00:10:51.478Z,17.71
2022-08-31T00:13:26.190Z,17.70
2022-08-31T00:15:58.654Z,17.66
2022-08-31T00:18:29.639Z,17.63
2022-08-31T00:21:00.927Z,17.62
2022-08-31T00:23:32.280Z,17.60
2022-08-31T00:26:03.256Z,17.56
2022-08-31T00:28:34.463Z,17.53
2022-08-31T00:31:05.632Z,17.49
2022-08-31T00:33:40.753Z,17.44
2022-08-31T00:36:15.018Z,17.41
2022-08-31T00:38:48.298Z,17.39
2022-08-31T00:41:21.162Z,17.35
2022-08-31T00:43:55.490Z,17.32
2022-08-31T00:46:28.909Z,17.30
2022-08-31T00:49:04.495Z,17.28
2022-08-31T00:51:41.975Z,17.26
2022-08-31T00:54:15.533Z,17.25
2022-08-31T00:56:46.947Z,17.24
2022-08-31T00:59:20.188Z,17.22
2022-08-31T01:01:51.764Z,17.21
2022-08-31T01:04:23.233Z,17.19
2022-08-31T01:06:54.777Z,17.18
2022-08-31T01:09:29.911Z,17.17
2022-08-31T01:11:59.309Z,17.15
2022-08-31T01:14:30.877Z,17.13
2022-08-31T01:17:02.505Z,17.11
2022-08-31T01:19:39.835Z,17.09
2022-08-31T01:22:17.114Z,17.07
2022-08-31T01:24:49.889Z,17.07
2022-08-31T01:27:24.800Z,17.07
2022-08-31T01:29:59.655Z,17.05
2022-08-31T01:32:32.852Z,17.04
2022-08-31T01:35:03.797Z,17.02
2022-08-31T01:37:36.447Z,17.01
2022-08-31T01:40:09.750Z,17.01
2022-08-31T01:42:40.818Z,17.01
2022-08-31T01:45:14.895Z,17.00
2022-08-31T01:47:46.004Z,17.00
2022-08-31T01:50:17.208Z,16.99
2022-08-31T01:52:48.249Z,16.97
2022-08-31T01:55:19.383Z,16.97
2022-08-31T01:57:51.164Z,16.97
2022-08-31T02:00:40.293Z,16.96
2022-08-31T02:03:11.538Z,16.95
2022-08-31T02:05:43.484Z,16.95
2022-08-31T02:08:14.454Z,16.94
2022-08-31T02:10:46.536Z,16.93
2022-08-31T02:13:17.878Z,16.92
2022-08-31T02:15:49.135Z,16.91
2022-08-31T02:18:20.281Z,16.89
2022-08-31T02:20:54.214Z,16.88
2022-08-31T02:23:25.287Z,16.86
2022-08-31T02:25:56.956Z,16.84
2022-08-31T02:28:28.152Z,16.82
2022-08-31T02:30:59.706Z,16.81
2022-08-31T02:33:33.606Z,16.81
2022-08-31T02:36:06.059Z,16.79
2022-08-31T02:38:40.756Z,16.78
2022-08-31T02:41:13.883Z,16.76
2022-08-31T02:43:46.284Z,16.74
2022-08-31T02:46:18.181Z,16.72
2022-08-31T02:49:01.509Z,16.70
2022-08-31T02:51:33.165Z,16.69
2022-08-31T02:54:09.943Z,16.70
2022-08-31T02:57:04.377Z,16.69
2022-08-31T02:59:36.892Z,16.69
2022-08-31T03:02:08.141Z,16.68
2022-08-31T03:04:41.178Z,16.68
2022-08-31T03:07:12.304Z,16.67
2022-08-31T03:09:43.314Z,16.67
2022-08-31T03:12:16.217Z,16.66
2022-08-31T03:14:47.240Z,16.64
2022-08-31T03:17:18.256Z,16.64
2022-08-31T03:19:49.323Z,16.63
2022-08-31T03:22:20.498Z,16.63
2022-08-31T03:24:52.146Z,16.62
2022-08-31T03:27:27.224Z,16.61
2022-08-31T03:29:59.846Z,16.61
2022-08-31T03:32:34.194Z,16.60
2022-08-31T03:35:06.147Z,16.59
2022-08-31T03:37:37.754Z,16.59
2022-08-31T03:40:11.432Z,16.59
2022-08-31T03:42:44.782Z,16.60
2022-08-31T03:45:16.559Z,16.62
2022-08-31T03:47:47.583Z,16.63
2022-08-31T03:50:19.144Z,16.65
2022-08-31T03:53:06.426Z,16.68
2022-08-31T03:55:42.785Z,16.70
2022-08-31T03:58:14.885Z,16.73
2022-08-31T04:00:49.801Z,16.76
2022-08-31T04:03:36.743Z,16.79
2022-08-31T04:06:26.535Z,16.82
2022-08-31T04:09:29.958Z,16.85
2022-08-31T04:12:20.562Z,16.86
2022-08-31T04:15:12.336Z,16.88
2022-08-31T04:18:02.045Z,16.90
2022-08-31T04:20:55.137Z,16.95
2022-08-31T04:23:30.126Z,16.99
2022-08-31T04:26:01.697Z,17.04
2022-08-31T04:28:33.066Z,17.09
2022-08-31T04:31:09.643Z,17.14
2022-08-31T04:33:42.090Z,17.17
2022-08-31T04:36:16.469Z,17.21
2022-08-31T04:38:49.343Z,17.26
2022-08-31T04:41:22.386Z,17.29
2022-08-31T04:43:56.500Z,17.33
2022-08-31T04:46:28.577Z,17.38
2022-08-31T04:49:00.326Z,17.41
2022-08-31T04:51:35.651Z,17.43
2022-08-31T04:54:09.732Z,17.46
2022-08-31T04:56:43.650Z,17.49
2022-08-31T04:59:18.076Z,17.53
2022-08-31T05:02:09.173Z,17.57
2022-08-31T05:04:43.928Z,17.57
2022-08-31T05:07:18.404Z,17.58
2022-08-31T05:09:49.695Z,17.60
2022-08-31T05:12:20.943Z,17.60
2022-08-31T05:14:52.002Z,17.63
2022-08-31T05:17:30.767Z,17.70
2022-08-31T05:20:02.573Z,17.77
2022-08-31T05:22:34.555Z,17.88
2022-08-31T05:25:08.093Z,18.00
2022-08-31T05:27:41.213Z,18.16
2022-08-31T05:30:17.338Z,18.29
2022-08-31T05:33:09.067Z,18.40
2022-08-31T05:35:44.794Z,18.50
2022-08-31T05:38:16.632Z,18.65
2022-08-31T05:40:54.677Z,18.78
2022-08-31T05:43:26.262Z,18.89
2022-08-31T05:45:58.380Z,19.00
2022-08-31T05:48:34.028Z,19.14
2022-08-31T05:51:08.157Z,19.30
2022-08-31T05:53:43.974Z,19.44
2022-08-31T05:56:20.150Z,19.57
2022-08-31T05:58:53.392Z,19.79
2022-08-31T06:01:30.178Z,20.23
2022-08-31T06:04:09.431Z,20.62
2022-08-31T06:06:41.847Z,20.96
2022-08-31T06:09:33.662Z,21.20
2022-08-31T06:12:07.054Z,21.33
2022-08-31T06:14:38.988Z,21.41
2022-08-31T06:17:10.424Z,21.47
2022-08-31T06:19:43.700Z,21.49
2022-08-31T06:22:14.833Z,21.51
2022-08-31T06:24:46.136Z,21.57
2022-08-31T06:27:30.025Z,21.67
2022-08-31T06:30:04.938Z,21.75
2022-08-31T06:32:41.399Z,21.87
2022-08-31T06:35:14.456Z,21.93
2022-08-31T06:38:14.843Z,22.05
2022-08-31T06:41:18.878Z,22.40
2022-08-31T06:44:11.127Z,23.52
2022-08-31T06:46:57.265Z,24.87
2022-08-31T06:49:31.027Z,26.10
2022-08-31T06:52:03.755Z,27.23
2022-08-31T06:54:36.148Z,28.33
2022-08-31T06:57:43.116Z,29.48
2022-08-31T07:00:54.215Z,30.38
2022-08-31T07:03:34.668Z,31.02
2022-08-31T07:06:11.613Z,31.35
2022-08-31T07:12:36.934Z,31.13
2022-08-31T07:15:10.511Z,30.79
2022-08-31T07:17:41.976Z,30.65
2022-08-31T07:20:15.180Z,30.45
2022-08-31T07:22:47.522Z,30.20
2022-08-31T07:25:40.767Z,30.16
2022-08-31T07:28:13.486Z,30.16
2022-08-31T07:30:47.283Z,30.50
2022-08-31T07:33:23.207Z,30.90
2022-08-31T07:35:59.519Z,31.17
2022-08-31T07:39:18.027Z,31.58
2022-08-31T07:43:20.166Z,32.08
2022-08-31T07:45:49.815Z,32.73
2022-08-31T07:48:25.955Z,33.19
2022-08-31T07:51:17.108Z,33.60
2022-08-31T07:53:54.561Z,33.93
2022-08-31T07:56:35.224Z,34.13
2022-08-31T07:59:16.047Z,34.28
2022-08-31T08:01:56.120Z,34.30
2022-08-31T08:04:29.170Z,34.21
2022-08-31T08:07:40.704Z,34.04
2022-08-31T08:10:40.145Z,33.90
2022-08-31T08:13:38.269Z,33.65
2022-08-31T08:16:31.183Z,33.42
2022-08-31T08:19:26.381Z,33.24
2022-08-31T08:21:58.081Z,33.03
2022-08-31T08:24:32.922Z,32.80
2022-08-31T08:27:07.424Z,32.67
2022-08-31T08:29:54.666Z,32.52
2022-08-31T08:32:31.640Z,32.46
2022-08-31T08:35:05.067Z,32.35
2022-08-31T08:37:57.095Z,32.14
2022-08-31T08:40:34.367Z,31.96
2022-08-31T08:43:06.690Z,31.77
2022-08-31T08:45:39.118Z,31.62
2022-08-31T08:48:15.265Z,31.46
2022-08-31T08:50:47.131Z,31.36
2022-08-31T08:53:35.366Z,31.12
2022-08-31T08:56:33.740Z,30.92
2022-08-31T08:59:11.489Z,30.74
2022-08-31T09:01:49.039Z,30.56
2022-08-31T09:04:41.178Z,30.42
2022-08-31T09:07:45.343Z,30.28
2022-08-31T09:10:27.394Z,30.19
2022-08-31T09:13:12.398Z,30.01
2022-08-31T09:15:57.124Z,29.92
2022-08-31T09:18:45.975Z,29.71
2022-08-31T09:21:30.994Z,29.46
2022-08-31T09:24:05.232Z,29.36
2022-08-31T09:27:17.889Z,29.27
2022-08-31T09:29:54.280Z,29.17
2022-08-31T09:32:31.779Z,29.02
2022-08-31T09:35:05.727Z,28.92
2022-08-31T09:37:46.444Z,28.85
2022-08-31T09:40:24.324Z,28.74
2022-08-31T09:43:07.765Z,28.64
2022-08-31T09:45:49.840Z,28.56
2022-08-31T09:48:43.572Z,28.51
2022-08-31T09:51:24.010Z,28.53
2022-08-31T09:54:13.832Z,28.52
2022-08-31T09:56:58.760Z,28.47
2022-08-31T09:59:38.568Z,28.50
2022-08-31T10:02:13.982Z,28.51
2022-08-31T10:04:55.544Z,28.50
2022-08-31T10:07:39.051Z,28.44
2022-08-31T10:10:28.231Z,28.33
2022-08-31T10:13:06.649Z,28.15
2022-08-31T10:15:44.518Z,28.06
2022-08-31T10:18:21.941Z,27.98
2022-08-31T10:21:04.853Z,27.96
2022-08-31T10:23:54.621Z,27.88
2022-08-31T10:26:36.708Z,27.73
2022-08-31T10:29:22.781Z,27.67
2022-08-31T10:32:01.596Z,27.68
2022-08-31T10:34:54.784Z,27.72
2022-08-31T10:37:37.097Z,27.78
2022-08-31T10:40:14.356Z,27.78
2022-08-31T10:42:50.722Z,27.66
2022-08-31T10:45:25.419Z,27.45
2022-08-31T10:47:57.332Z,27.15
2022-08-31T10:50:45.236Z,26.83
2022-08-31T10:53:35.967Z,26.55
2022-08-31T10:56:19.094Z,26.41
2022-08-31T10:59:13.001Z,26.38
2022-08-31T11:01:54.513Z,26.33
2022-08-31T11:05:03.534Z,26.29
2022-08-31T11:07:45.234Z,26.29
2022-08-31T11:10:25.406Z,26.30
2022-08-31T11:12:59.472Z,26.28
2022-08-31T11:16:00.464Z,26.28
2022-08-31T11:19:19.738Z,26.23
2022-08-31T11:22:18.986Z,26.02
2022-08-31T11:25:15.174Z,25.78
2022-08-31T11:27:51.705Z,25.55
2022-08-31T11:30:28.067Z,25.44
2022-08-31T11:33:05.974Z,25.40
2022-08-31T11:36:10.083Z,25.36
2022-08-31T11:38:52.383Z,25.33
2022-08-31T11:41:46.984Z,25.31
2022-08-31T11:45:00.490Z,25.24
2022-08-31T11:47:47.209Z,25.12
2022-08-31T11:50:56.294Z,24.99
2022-08-31T11:53:35.342Z,24.87
2022-08-31T11:56:09.759Z,24.83
2022-08-31T11:58:42.612Z,24.83
2022-08-31T12:01:43.205Z,24.83
2022-08-31T12:04:53.814Z,24.84
2022-08-31T12:07:29.553Z,24.83
2022-08-31T12:10:34.866Z,24.84
2022-08-31T12:13:36.963Z,24.85
2022-08-31T12:16:21.289Z,24.89
2022-08-31T12:19:34.461Z,24.92
2022-08-31T12:22:37.083Z,24.95
2022-08-31T12:25:20.361Z,24.91
2022-08-31T12:28:02.493Z,24.84
2022-08-31T12:30:33.839Z,24.70
2022-08-31T12:33:11.692Z,24.58
2022-08-31T12:35:46.505Z,24.45
2022-08-31T12:38:22.448Z,24.33
2022-08-31T12:40:56.215Z,24.25
2022-08-31T12:43:33.458Z,24.19
2022-08-31T12:46:26.747Z,24.16
2022-08-31T12:49:16.787Z,24.15
2022-08-31T12:51:51.719Z,24.15
2022-08-31T12:54:56.517Z,24.14
2022-08-31T12:57:59.497Z,24.13
2022-08-31T13:00:33.905Z,24.13
2022-08-31T13:03:18.268Z,24.11
2022-08-31T13:06:09.133Z,24.11
2022-08-31T13:08:46.693Z,24.13
2022-08-31T13:11:39.871Z,24.15
2022-08-31T13:14:18.316Z,24.17
2022-08-31T13:16:52.437Z,24.16
2022-08-31T13:19:26.843Z,24.15
2022-08-31T13:22:01.582Z,24.11
2022-08-31T13:24:35.955Z,24.06
2022-08-31T13:27:12.507Z,24.00
2022-08-31T13:33:31.210Z,23.91
2022-08-31T13:36:09.701Z,23.88
2022-08-31T13:38:54.954Z,23.88
2022-08-31T13:41:28.668Z,23.88
2022-08-31T13:44:03.755Z,23.87
2022-08-31T13:46:43.255Z,23.87
2022-08-31T13:49:32.547Z,23.87
2022-08-31T13:52:04.806Z,23.86
2022-08-31T13:54:37.335Z,23.86
2022-08-31T13:57:22.794Z,23.86
2022-08-31T13:59:54.494Z,23.86
2022-08-31T14:02:36.878Z,23.86
2022-08-31T14:05:13.105Z,23.84
2022-08-31T14:08:02.381Z,23.82
2022-08-31T14:10:37.703Z,23.79
2022-08-31T14:13:18.609Z,23.73
2022-08-31T14:15:56.475Z,23.68
2022-08-31T14:18:32.371Z,23.62
2022-08-31T14:21:23.440Z,23.57
2022-08-31T14:24:02.698Z,23.52
2022-08-31T14:26:37.286Z,23.47
2022-08-31T14:29:11.453Z,23.43
2022-08-31T14:31:48.609Z,23.42
2022-08-31T14:34:36.880Z,23.42
2022-08-31T14:37:19.875Z,23.42
2022-08-31T14:39:53.888Z,23.41
2022-08-31T14:42:28.886Z,23.38
2022-08-31T14:45:05.122Z,23.35
2022-08-31T14:47:44.351Z,23.28
2022-08-31T14:50:18.794Z,23.21
2022-08-31T14:52:55.488Z,23.14
2022-08-31T14:55:31.289Z,23.07
2022-08-31T14:58:09.788Z,22.99
2022-08-31T15:00:53.710Z,22.91
2022-08-31T15:03:26.805Z,22.83
2022-08-31T15:06:00.169Z,22.75
2022-08-31T15:08:38.625Z,22.69
2022-08-31T15:11:11.079Z,22.63
2022-08-31T15:13:57.193Z,22.58
2022-08-31T15:16:30.996Z,22.54
2022-08-31T15:19:04.536Z,22.53
2022-08-31T15:21:35.971Z,22.51
2022-08-31T15:24:16.356Z,22.49
2022-08-31T15:26:47.994Z,22.48
2022-08-31T15:29:20.967Z,22.45
2022-08-31T15:31:55.547Z,22.42
2022-08-31T15:34:30.590Z,22.41
2022-08-31T15:37:03.928Z,22.39
2022-08-31T15:43:47.157Z,22.30
2022-08-31T15:46:18.725Z,22.23
2022-08-31T15:48:52.302Z,22.18
2022-08-31T15:51:27.990Z,22.13
2022-08-31T15:54:21.082Z,22.08
2022-08-31T15:56:54.531Z,22.01
2022-08-31T15:59:26.572Z,21.94
2022-08-31T16:01:59.070Z,21.87
2022-08-31T16:04:31.663Z,21.82
2022-08-31T16:07:05.244Z,21.74
2022-08-31T16:09:36.708Z,21.65
2022-08-31T16:12:11.043Z,21.57
2022-08-31T16:14:45.409Z,21.47
2022-08-31T16:17:19.129Z,21.39
2022-08-31T16:19:53.261Z,21.32
2022-08-31T16:22:30.549Z,21.25
2022-08-31T16:25:02.268Z,21.19
2022-08-31T16:27:35.832Z,21.12
2022-08-31T16:30:09.153Z,21.05
2022-08-31T16:32:40.479Z,21.01
2022-08-31T16:35:12.718Z,20.95
2022-08-31T16:37:44.833Z,20.92
2022-08-31T16:44:36.437Z,20.81
2022-08-31T16:47:08.888Z,20.78
2022-08-31T16:49:41.432Z,20.74
2022-08-31T16:52:14.887Z,20.70
2022-08-31T16:54:52.641Z,20.68
2022-08-31T16:57:27.353Z,20.65
2022-08-31T17:00:00.639Z,20.62
2022-08-31T17:02:54.481Z,20.61
2022-08-31T17:05:25.791Z,20.58
2022-08-31T17:07:57.227Z,20.56
2022-08-31T17:10:34.610Z,20.55
2022-08-31T17:13:07.328Z,20.52
2022-08-31T17:15:41.945Z,20.50
2022-08-31T17:18:16.703Z,20.48
2022-08-31T17:20:48.720Z,20.44
2022-08-31T17:23:24.563Z,20.39
2022-08-31T17:25:55.942Z,20.35
2022-08-31T17:28:27.098Z,20.32
2022-08-31T17:31:01.324Z,20.28
2022-08-31T17:33:35.741Z,20.25
2022-08-31T17:36:10.089Z,20.20
2022-08-31T17:38:41.394Z,20.14
2022-08-31T17:41:13.098Z,20.07
2022-08-31T17:43:46.743Z,20.03
2022-08-31T17:46:53.949Z,19.96
2022-08-31T17:49:26.993Z,19.91
2022-08-31T17:52:04.698Z,19.88
2022-08-31T17:54:39.534Z,19.85
2022-08-31T17:57:13.766Z,19.84
2022-08-31T17:59:48.798Z,19.83
2022-08-31T18:02:19.232Z,19.83
2022-08-31T18:04:52.459Z,19.81
2022-08-31T18:07:25.086Z,19.81
2022-08-31T18:09:56.212Z,19.79
2022-08-31T18:12:27.781Z,19.79
2022-08-31T18:14:59.319Z,19.77
2022-08-31T18:17:31.260Z,19.75
2022-08-31T18:20:03.362Z,19.74
2022-08-31T18:22:34.804Z,19.70
2022-08-31T18:25:07.368Z,19.69
2022-08-31T18:27:38.941Z,19.67
2022-08-31T18:30:15.184Z,19.64
2022-08-31T18:32:50.248Z,19.61
2022-08-31T18:35:22.136Z,19.60
2022-08-31T18:37:54.534Z,19.59
2022-08-31T18:40:52.646Z,19.58
2022-08-31T18:44:31.640Z,19.57
2022-08-31T18:48:01.675Z,19.57
2022-08-31T18:50:37.237Z,19.55
2022-08-31T18:53:15.130Z,19.53
2022-08-31T18:56:33.485Z,19.50
2022-08-31T18:59:29.784Z,19.47
2022-08-31T19:02:01.217Z,19.47
2022-08-31T19:04:32.982Z,19.46
2022-08-31T19:07:05.298Z,19.44
2022-08-31T19:13:35.524Z,19.41
2022-08-31T19:16:15.206Z,19.40
2022-08-31T19:18:49.611Z,19.38
2022-08-31T19:21:45.993Z,19.34
2022-08-31T19:24:22.088Z,19.30
2022-08-31T19:26:55.953Z,19.26
2022-08-31T19:29:30.952Z,19.20
2022-08-31T19:32:21.614Z,19.16
2022-08-31T19:34:53.218Z,19.10
2022-08-31T19:37:24.417Z,19.05
2022-08-31T19:39:55.729Z,18.99
2022-08-31T19:45:23.639Z,18.90
2022-08-31T19:48:01.279Z,18.87
2022-08-31T19:50:41.502Z,18.83
2022-08-31T19:53:20.718Z,18.80
2022-08-31T19:55:57.668Z,18.76
2022-08-31T19:58:29.897Z,18.71
2022-08-31T20:01:06.478Z,18.68
2022-08-31T20:03:37.843Z,18.64
2022-08-31T20:06:12.954Z,18.60
2022-08-31T20:08:45.823Z,18.58
2022-08-31T20:11:21.953Z,18.54
2022-08-31T20:13:58.650Z,18.52
2022-08-31T20:16:43.345Z,18.49
2022-08-31T20:19:39.780Z,18.48
2022-08-31T20:22:13.964Z,18.45
2022-08-31T20:25:32.482Z,18.43
2022-08-31T20:28:07.092Z,18.41
2022-08-31T20:30:41.815Z,18.39
2022-08-31T20:33:13.520Z,18.37
2022-08-31T20:35:47.932Z,18.36
2022-08-31T20:38:20.257Z,18.35
2022-08-31T20:40:53.086Z,18.33
2022-08-31T20:43:24.892Z,18.31
2022-08-31T20:45:56.286Z,18.28
2022-08-31T20:48:46.165Z,18.26
2022-08-31T20:51:41.305Z,18.24
2022-08-31T20:54:13.714Z,18.21
2022-08-31T20:56:55.333Z,18.18
2022-08-31T20:59:31.456Z,18.16
2022-08-31T21:02:12.481Z,18.14
2022-08-31T21:04:45.808Z,18.14
2022-08-31T21:07:19.133Z,18.11
2022-08-31T21:09:51.246Z,18.07
2022-08-31T21:12:23.008Z,18.04
2022-08-31T21:14:55.964Z,18.02
2022-08-31T21:17:31.533Z,17.99
2022-08-31T21:20:03.940Z,17.95
2022-08-31T21:22:35.501Z,17.90
2022-08-31T21:25:12.622Z,17.86
2022-08-31T21:27:43.794Z,17.82
2022-08-31T21:30:15.636Z,17.77
2022-08-31T21:32:48.563Z,17.73
2022-08-31T21:35:20.310Z,17.68
2022-08-31T21:37:51.725Z,17.64
2022-08-31T21:40:32.128Z,17.61
2022-08-31T21:43:05.490Z,17.58
2022-08-31T21:45:38.522Z,17.55
2022-08-31T21:48:11.460Z,17.50
2022-08-31T21:50:47.176Z,17.48
2022-08-31T21:53:25.788Z,17.43
2022-08-31T21:55:59.230Z,17.39
2022-08-31T21:58:31.992Z,17.34
2022-08-31T22:01:03.289Z,17.29
2022-08-31T22:03:35.813Z,17.27
2022-08-31T22:06:12.887Z,17.24
2022-08-31T22:09:00.406Z,17.20
2022-08-31T22:11:46.698Z,17.16
2022-08-31T22:14:42.053Z,17.13
2022-08-31T22:17:14.558Z,17.12
2022-08-31T22:19:45.562Z,17.10
2022-08-31T22:22:17.980Z,17.08
2022-08-31T22:24:49.294Z,17.04
2022-08-31T22:27:20.293Z,17.01
2022-08-31T22:29:51.456Z,16.98
2022-08-31T22:32:22.648Z,16.94
2022-08-31T22:34:55.383Z,16.93
2022-08-31T22:37:27.279Z,16.91
2022-08-31T22:39:58.278Z,16.88
2022-08-31T22:42:29.303Z,16.85
2022-08-31T22:45:00.474Z,16.83
2022-08-31T22:47:49.184Z,16.79
2022-08-31T22:50:21.055Z,16.76
2022-08-31T22:52:53.219Z,16.73
2022-08-31T22:55:24.410Z,16.68
2022-08-31T22:57:55.495Z,16.64
2022-08-31T23:00:28.037Z,16.60
2022-08-31T23:02:59.645Z,16.54
2022-08-31T23:05:31.265Z,16.51
2022-08-31T23:08:02.412Z,16.46
2022-08-31T23:10:35.665Z,16.41
2022-08-31T23:13:07.283Z,16.36
2022-08-31T23:15:40.233Z,16.31
2022-08-31T23:18:15.829Z,16.25
2022-08-31T23:20:46.876Z,16.20
2022-08-31T23:23:17.816Z,16.15
2022-08-31T23:25:50.507Z,16.11
2022-08-31T23:28:21.705Z,16.07
2022-08-31T23:30:52.704Z,16.02
2022-08-31T23:33:25.497Z,15.98
2022-08-31T23:35:56.589Z,15.92
2022-08-31T23:38:28.121Z,15.86
2022-08-31T23:41:00.571Z,15.80
2022-08-31T23:43:31.713Z,15.75
2022-08-31T23:46:04.387Z,15.71
2022-08-31T23:48:35.458Z,15.68
2022-08-31T23:51:10.656Z,15.63
2022-08-31T23:53:42.411Z,15.57
2022-08-31T23:56:32.240Z,15.53
2022-08-31T23:59:03.873Z,15.48
